createdAt,value
2019-04-21T00:02:01.246Z,14.22
2019-04-21T00:04:46.853Z,14.16
2019-04-21T00:07:27.749Z,14.13
2019-04-21T00:10:09.424Z,14.06
2019-04-21T00:12:28.685Z,14.07
2019-04-21T00:14:57.898Z,14.07
2019-04-21T00:17:24.604Z,13.96
2019-04-21T00:20:11.481Z,13.88
2019-04-21T00:22:44.426Z,13.85
2019-04-21T00:25:21.338Z,13.80
2019-04-21T00:27:51.615Z,13.77
2019-04-21T00:30:34.242Z,13.75
2019-04-21T00:32:54.002Z,13.71
2019-04-21T00:35:21.255Z,13.66
2019-04-21T00:38:15.406Z,13.60
2019-04-21T00:40:52.102Z,13.57
2019-04-21T00:43:18.378Z,13.57
2019-04-21T00:45:43.469Z,13.57
2019-04-21T00:48:23.316Z,13.47
2019-04-21T00:51:10.994Z,13.42
2019-04-21T00:54:02.778Z,13.33
2019-04-21T00:56:27.471Z,13.20
2019-04-21T00:58:59.380Z,13.19
2019-04-21T01:01:28.065Z,13.16
2019-04-21T01:04:06.646Z,13.15
2019-04-21T01:06:38.111Z,13.05
2019-04-21T01:09:03.745Z,12.98
2019-04-21T01:11:46.797Z,12.99
2019-04-21T01:14:20.089Z,12.90
2019-04-21T01:16:56.182Z,12.86
2019-04-21T01:19:16.661Z,12.81
2019-04-21T01:21:31.820Z,12.79
2019-04-21T01:24:11.788Z,12.63
2019-04-21T01:26:48.369Z,12.56
2019-04-21T01:29:35.688Z,12.59
2019-04-21T01:32:05.119Z,12.58
2019-04-21T01:34:39.116Z,12.52
2019-04-21T01:37:03.898Z,12.46
2019-04-21T01:39:51.480Z,12.47
2019-04-21T01:42:19.128Z,12.45
2019-04-21T01:44:47.427Z,12.46
2019-04-21T01:47:17.391Z,12.43
2019-04-21T01:49:43.169Z,12.35
2019-04-21T01:52:38.285Z,12.34
2019-04-21T01:55:12.344Z,12.32
2019-04-21T01:58:00.393Z,12.32
2019-04-21T02:00:41.188Z,12.30
2019-04-21T02:03:37.527Z,12.17
2019-04-21T02:06:00.032Z,12.08
2019-04-21T02:08:21.939Z,12.11
2019-04-21T02:11:00.649Z,12.07
2019-04-21T02:13:27.644Z,12.01
2019-04-21T02:16:08.453Z,11.99
2019-04-21T02:18:33.705Z,12.06
2019-04-21T02:20:58.022Z,11.97
2019-04-21T02:23:47.958Z,11.99
2019-04-21T02:26:16.381Z,11.89
2019-04-21T02:28:58.580Z,11.89
2019-04-21T02:39:15.747Z,11.73
2019-04-21T02:41:51.195Z,11.70
2019-04-21T02:44:15.945Z,11.68
2019-04-21T02:46:49.446Z,11.68
2019-04-21T02:52:06.843Z,11.69
2019-04-21T02:54:48.274Z,11.71
2019-04-21T02:59:59.548Z,11.65
2019-04-21T03:05:26.171Z,11.59
2019-04-21T03:07:52.226Z,11.56
2019-04-21T03:10:18.308Z,11.53
2019-04-21T03:12:48.231Z,11.53
2019-04-21T03:18:04.180Z,11.46
2019-04-21T03:20:36.212Z,11.37
2019-04-21T03:23:07.755Z,11.29
2019-04-21T03:25:41.620Z,11.26
2019-04-21T03:36:13.073Z,11.15
2019-04-21T03:38:31.840Z,11.13
2019-04-21T03:41:01.395Z,11.10
2019-04-21T03:43:28.207Z,11.06
2019-04-21T03:45:58.175Z,10.98
2019-04-21T03:48:36.562Z,10.91
2019-04-21T03:51:18.939Z,10.85
2019-04-21T03:53:39.932Z,10.79
2019-04-21T03:56:14.622Z,10.76
2019-04-21T04:01:40.687Z,10.65
2019-04-21T04:04:37.206Z,10.58
2019-04-21T04:10:22.384Z,10.45
2019-04-21T04:12:52.220Z,10.35
2019-04-21T04:15:31.097Z,10.31
2019-04-21T04:17:53.969Z,10.27
2019-04-21T04:20:33.249Z,10.25
2019-04-21T04:23:03.353Z,10.26
2019-04-21T04:25:33.784Z,10.25
2019-04-21T04:28:28.723Z,10.23
2019-04-21T04:30:45.300Z,10.23
2019-04-21T04:33:21.285Z,10.18
2019-04-21T04:36:05.959Z,10.17
2019-04-21T04:38:32.601Z,10.19
2019-04-21T04:41:06.229Z,10.19
2019-04-21T04:43:35.283Z,10.20
2019-04-21T04:46:18.266Z,10.18
2019-04-21T04:51:37.113Z,10.27
2019-04-21T04:53:44.024Z,10.13
2019-04-21T04:56:20.739Z,10.07
2019-04-21T04:59:23.119Z,10.04
2019-04-21T05:01:42.450Z,10.09
2019-04-21T05:03:58.013Z,10.13
2019-04-21T05:06:42.633Z,10.15
2019-04-21T05:09:09.474Z,10.20
2019-04-21T05:11:44.616Z,10.21
2019-04-21T05:14:23.021Z,10.26
2019-04-21T05:16:46.664Z,10.26
2019-04-21T05:19:18.107Z,10.32
2019-04-21T05:22:06.809Z,10.46
2019-04-21T05:24:12.371Z,10.40
2019-04-21T05:26:46.192Z,10.48
2019-04-21T05:29:15.799Z,10.48
2019-04-21T05:32:03.193Z,10.50
2019-04-21T05:34:35.658Z,10.57
2019-04-21T05:37:25.779Z,10.64
2019-04-21T05:40:10.539Z,10.71
2019-04-21T05:42:39.975Z,10.83
2019-04-21T05:45:24.163Z,10.87
2019-04-21T05:48:11.651Z,10.92
2019-04-21T05:50:32.077Z,11.07
2019-04-21T05:53:08.228Z,11.16
2019-04-21T05:55:43.523Z,11.13
2019-04-21T05:58:13.077Z,11.19
2019-04-21T06:03:41.015Z,11.25
2019-04-21T06:08:39.039Z,11.46
2019-04-21T06:11:16.157Z,11.64
2019-04-21T06:13:51.633Z,11.78
2019-04-21T06:16:14.397Z,11.83
2019-04-21T06:18:57.249Z,11.92
2019-04-21T06:21:23.278Z,12.03
2019-04-21T06:23:56.974Z,12.08
2019-04-21T06:26:52.084Z,12.18
2019-04-21T06:29:04.253Z,12.38
2019-04-21T06:32:16.719Z,12.49
2019-04-21T06:34:08.140Z,12.73
2019-04-21T06:37:08.177Z,12.93
2019-04-21T06:39:48.263Z,13.09
2019-04-21T06:42:02.457Z,13.11
2019-04-21T06:44:49.072Z,13.29
2019-04-21T06:47:26.557Z,13.58
2019-04-21T06:49:43.267Z,13.64
2019-04-21T06:52:42.302Z,13.85
2019-04-21T06:54:56.062Z,13.98
2019-04-21T06:57:28.738Z,14.20
2019-04-21T06:59:59.847Z,14.35
2019-04-21T07:02:50.688Z,14.47
2019-04-21T07:05:15.251Z,14.77
2019-04-21T07:07:43.427Z,15.03
2019-04-21T07:10:14.329Z,15.31
2019-04-21T07:12:45.038Z,15.49
2019-04-21T07:15:16.834Z,15.59
2019-04-21T07:17:54.017Z,15.75
2019-04-21T07:20:21.481Z,16.02
2019-04-21T07:23:03.559Z,16.34
2019-04-21T07:25:32.674Z,16.69
2019-04-21T07:28:02.969Z,16.99
2019-04-21T07:30:43.955Z,17.33
2019-04-21T07:33:37.783Z,17.65
2019-04-21T07:35:45.800Z,17.86
2019-04-21T07:38:19.552Z,18.18
2019-04-21T07:40:49.486Z,18.48
2019-04-21T07:43:18.378Z,18.77
2019-04-21T07:45:49.826Z,19.02
2019-04-21T07:48:43.279Z,19.19
2019-04-21T07:51:42.329Z,19.51
2019-04-21T07:54:13.958Z,19.92
2019-04-21T07:56:28.287Z,20.24
2019-04-21T07:59:12.734Z,20.46
2019-04-21T08:01:51.957Z,20.83
2019-04-21T08:04:43.550Z,21.13
2019-04-21T08:06:52.079Z,21.49
2019-04-21T08:09:29.481Z,21.89
2019-04-21T08:11:57.502Z,22.15
2019-04-21T08:14:35.619Z,22.44
2019-04-21T08:17:14.334Z,22.62
2019-04-21T08:19:38.320Z,22.74
2019-04-21T08:22:17.082Z,22.98
2019-04-21T08:24:49.179Z,23.08
2019-04-21T08:27:30.576Z,23.25
2019-04-21T08:29:51.907Z,23.40
2019-04-21T08:32:36.268Z,23.74
2019-04-21T08:35:22.766Z,24.06
2019-04-21T08:37:34.990Z,24.43
2019-04-21T08:40:09.860Z,24.86
2019-04-21T08:42:38.741Z,25.15
2019-04-21T08:45:19.023Z,25.36
2019-04-21T08:47:50.270Z,25.47
2019-04-21T08:50:15.210Z,25.70
2019-04-21T08:55:51.040Z,26.08
2019-04-21T09:01:14.110Z,25.91
2019-04-21T09:03:56.726Z,26.14
2019-04-21T09:06:40.342Z,26.41
2019-04-21T09:11:30.707Z,26.67
2019-04-21T09:14:07.726Z,26.53
2019-04-21T09:16:35.467Z,26.41
2019-04-21T09:19:04.411Z,26.49
2019-04-21T09:21:45.239Z,26.65
2019-04-21T09:24:19.371Z,26.90
2019-04-21T09:26:51.495Z,27.38
2019-04-21T09:29:16.012Z,27.63
2019-04-21T09:31:41.839Z,27.95
2019-04-21T09:34:20.647Z,27.78
2019-04-21T09:36:49.527Z,27.37
2019-04-21T09:39:21.880Z,27.67
2019-04-21T09:41:54.471Z,27.77
2019-04-21T09:44:29.035Z,27.96
2019-04-21T09:46:59.988Z,27.96
2019-04-21T09:49:31.710Z,27.98
2019-04-21T09:52:02.336Z,28.08
2019-04-21T09:54:40.886Z,28.17
2019-04-21T09:57:14.595Z,27.63
2019-04-21T09:59:42.351Z,27.60
2019-04-21T10:02:18.169Z,27.26
2019-04-21T10:04:46.242Z,27.33
2019-04-21T10:07:26.415Z,27.60
2019-04-21T10:09:52.276Z,27.39
2019-04-21T10:12:23.708Z,27.73
2019-04-21T10:14:55.365Z,27.84
2019-04-21T10:17:39.573Z,28.08
2019-04-21T10:20:14.248Z,28.08
2019-04-21T10:22:46.768Z,28.37
2019-04-21T10:25:18.719Z,28.44
2019-04-21T10:27:50.087Z,28.86
2019-04-21T10:30:24.283Z,29.35
2019-04-21T10:32:56.589Z,29.62
2019-04-21T10:35:28.901Z,29.59
2019-04-21T10:38:12.921Z,29.29
2019-04-21T10:40:36.910Z,29.49
2019-04-21T10:43:10.763Z,29.68
2019-04-21T10:45:41.053Z,29.84
2019-04-21T10:48:12.790Z,30.18
2019-04-21T10:50:45.286Z,30.37
2019-04-21T10:53:20.883Z,30.22
2019-04-21T10:56:04.420Z,30.02
2019-04-21T10:58:30.514Z,30.22
2019-04-21T11:01:08.375Z,30.26
2019-04-21T11:04:23.096Z,30.30
2019-04-21T11:06:50.612Z,30.58
2019-04-21T11:09:22.436Z,30.70
2019-04-21T11:11:53.811Z,30.60
2019-04-21T11:14:25.405Z,30.58
2019-04-21T11:16:56.750Z,30.54
2019-04-21T11:19:28.664Z,30.78
2019-04-21T11:22:01.032Z,30.89
2019-04-21T11:24:33.312Z,30.99
2019-04-21T11:27:04.751Z,31.24
2019-04-21T11:29:37.153Z,31.31
2019-04-21T11:32:09.316Z,31.29
2019-04-21T11:34:41.013Z,31.62
2019-04-21T11:37:14.452Z,31.69
2019-04-21T11:39:52.140Z,32.00
2019-04-21T11:42:29.971Z,32.23
2019-04-21T11:45:01.455Z,31.90
2019-04-21T11:47:38.502Z,31.52
2019-04-21T11:50:10.884Z,30.87
2019-04-21T11:52:43.185Z,30.93
2019-04-21T11:55:14.592Z,31.11
2019-04-21T11:57:49.450Z,31.00
2019-04-21T12:00:19.873Z,30.65
2019-04-21T12:02:51.272Z,30.86
2019-04-21T12:05:23.629Z,31.24
2019-04-21T12:07:58.290Z,31.33
2019-04-21T12:10:29.249Z,31.70
2019-04-21T12:13:01.659Z,31.70
2019-04-21T12:15:34.652Z,31.35
2019-04-21T12:18:06.081Z,31.55
2019-04-21T12:20:37.660Z,32.15
2019-04-21T12:23:09.022Z,31.62
2019-04-21T12:25:43.537Z,30.58
2019-04-21T12:28:15.982Z,30.43
2019-04-21T12:30:49.881Z,30.23
2019-04-21T12:33:43.638Z,30.98
2019-04-21T12:36:15.844Z,31.64
2019-04-21T12:38:53.956Z,30.91
2019-04-21T12:41:22.478Z,29.99
2019-04-21T12:43:54.965Z,30.19
2019-04-21T12:46:27.656Z,30.67
2019-04-21T12:48:59.934Z,30.98
2019-04-21T12:51:31.335Z,31.60
2019-04-21T12:54:03.789Z,31.76
2019-04-21T12:56:35.750Z,31.64
2019-04-21T12:59:08.006Z,31.56
2019-04-21T13:01:39.556Z,31.92
2019-04-21T13:04:10.858Z,32.40
2019-04-21T13:06:43.469Z,32.84
2019-04-21T13:09:18.330Z,33.18
2019-04-21T13:11:48.888Z,33.54
2019-04-21T13:14:22.071Z,33.75
2019-04-21T13:16:53.566Z,33.66
2019-04-21T13:19:25.248Z,33.39
2019-04-21T13:21:56.611Z,33.43
2019-04-21T13:24:27.929Z,33.55
2019-04-21T13:27:01.585Z,33.86
2019-04-21T13:29:32.370Z,33.96
2019-04-21T13:32:05.467Z,34.13
2019-04-21T13:34:37.900Z,34.19
2019-04-21T13:37:09.731Z,33.89
2019-04-21T13:40:34.424Z,33.86
2019-04-21T13:42:55.024Z,33.66
2019-04-21T13:45:22.014Z,33.15
2019-04-21T13:47:54.743Z,32.80
2019-04-21T13:50:25.646Z,32.11
2019-04-21T13:52:56.986Z,32.35
2019-04-21T13:55:29.604Z,32.74
2019-04-21T13:58:02.085Z,33.26
2019-04-21T14:00:33.853Z,32.48
2019-04-21T14:03:06.960Z,32.54
2019-04-21T14:05:38.685Z,32.76
2019-04-21T14:08:11.300Z,32.77
2019-04-21T14:10:43.907Z,32.89
2019-04-21T14:13:16.455Z,32.93
2019-04-21T14:15:48.815Z,32.94
2019-04-21T14:18:20.917Z,33.31
2019-04-21T14:20:53.303Z,33.48
2019-04-21T14:23:32.434Z,33.79
2019-04-21T14:25:57.786Z,33.40
2019-04-21T14:28:30.202Z,32.71
2019-04-21T14:31:02.216Z,32.71
2019-04-21T14:33:34.181Z,32.87
2019-04-21T14:36:05.700Z,32.75
2019-04-21T14:38:38.467Z,32.47
2019-04-21T14:41:10.364Z,32.35
2019-04-21T14:43:41.855Z,32.31
2019-04-21T14:46:24.985Z,32.42
2019-04-21T14:49:15.219Z,32.53
2019-04-21T14:51:59.390Z,32.60
2019-04-21T14:54:48.946Z,32.41
2019-04-21T14:57:21.217Z,32.51
2019-04-21T14:59:53.063Z,32.58
2019-04-21T15:02:25.537Z,32.72
2019-04-21T15:04:57.860Z,32.67
2019-04-21T15:07:29.235Z,32.44
2019-04-21T15:10:09.781Z,32.51
2019-04-21T15:12:33.968Z,32.28
2019-04-21T15:15:05.832Z,32.13
2019-04-21T15:17:37.871Z,32.04
2019-04-21T15:20:13.855Z,32.08
2019-04-21T15:22:44.194Z,31.92
2019-04-21T15:25:16.239Z,31.75
2019-04-21T15:27:48.776Z,31.57
2019-04-21T15:30:20.751Z,31.49
2019-04-21T15:32:52.734Z,31.29
2019-04-21T15:35:24.951Z,31.05
2019-04-21T15:37:57.911Z,30.91
2019-04-21T15:40:40.780Z,30.68
2019-04-21T15:43:02.495Z,30.82
2019-04-21T15:45:34.888Z,30.89
2019-04-21T15:48:07.756Z,30.87
2019-04-21T15:50:39.795Z,30.65
2019-04-21T15:53:11.980Z,30.59
2019-04-21T15:55:59.613Z,30.63
2019-04-21T15:58:48.504Z,30.38
2019-04-21T16:01:28.285Z,30.15
2019-04-21T16:04:00.969Z,30.14
2019-04-21T16:06:32.678Z,30.01
2019-04-21T16:09:06.417Z,29.98
2019-04-21T16:11:37.979Z,30.13
2019-04-21T16:14:10.201Z,29.94
2019-04-21T16:16:43.177Z,29.83
2019-04-21T16:19:14.645Z,29.67
2019-04-21T16:21:46.530Z,29.47
2019-04-21T16:24:18.428Z,29.14
2019-04-21T16:26:50.810Z,28.75
2019-04-21T16:29:22.977Z,28.58
2019-04-21T16:31:55.204Z,28.23
2019-04-21T16:34:37.892Z,27.92
2019-04-21T16:36:59.780Z,27.69
2019-04-21T16:39:31.542Z,27.62
2019-04-21T16:42:02.950Z,27.60
2019-04-21T16:44:34.667Z,27.41
2019-04-21T16:47:07.650Z,27.24
2019-04-21T16:49:40.019Z,27.12
2019-04-21T16:52:23.960Z,26.94
2019-04-21T16:55:06.385Z,26.62
2019-04-21T16:57:43.806Z,26.29
2019-04-21T17:00:31.225Z,26.25
2019-04-21T17:02:54.697Z,26.26
2019-04-21T17:05:26.210Z,26.06
2019-04-21T17:07:57.827Z,26.00
2019-04-21T17:10:30.657Z,25.76
2019-04-21T17:13:02.321Z,25.50
2019-04-21T17:15:51.571Z,25.34
2019-04-21T17:18:22.773Z,25.33
2019-04-21T17:20:48.369Z,25.21
2019-04-21T17:23:13.519Z,25.14
2019-04-21T17:25:45.311Z,25.06
2019-04-21T17:28:17.373Z,24.98
2019-04-21T17:30:48.970Z,24.79
2019-04-21T17:33:23.344Z,24.72
2019-04-21T17:35:53.374Z,24.64
2019-04-21T17:38:25.868Z,24.57
2019-04-21T17:41:09.310Z,24.45
2019-04-21T17:43:31.865Z,24.27
2019-04-21T17:46:03.297Z,24.24
2019-04-21T17:48:34.813Z,24.14
2019-04-21T17:51:11.831Z,24.12
2019-04-21T17:53:51.566Z,24.00
2019-04-21T17:56:48.103Z,23.85
2019-04-21T17:59:16.395Z,23.73
2019-04-21T18:01:48.434Z,23.71
2019-04-21T18:04:19.815Z,23.62
2019-04-21T18:07:21.570Z,23.50
2019-04-21T18:12:33.380Z,23.22
2019-04-21T18:15:00.084Z,23.10
2019-04-21T18:17:24.633Z,22.97
2019-04-21T18:19:57.241Z,22.90
2019-04-21T18:22:53.516Z,22.77
2019-04-21T18:25:38.459Z,22.61
2019-04-21T18:28:00.644Z,22.55
2019-04-21T18:30:49.480Z,22.41
2019-04-21T18:33:27.378Z,22.33
2019-04-21T18:36:30.243Z,22.19
2019-04-21T18:39:38.071Z,22.12
2019-04-21T18:42:17.585Z,21.97
2019-04-21T18:45:28.146Z,21.89
2019-04-21T18:47:57.072Z,21.77
2019-04-21T18:50:41.629Z,21.73
2019-04-21T18:53:41.618Z,21.59
2019-04-21T18:56:05.322Z,21.51
2019-04-21T18:58:32.782Z,21.42
2019-04-21T19:01:11.796Z,21.33
2019-04-21T19:03:41.964Z,21.22
2019-04-21T19:06:15.249Z,21.13
2019-04-21T19:09:07.653Z,21.09
2019-04-21T19:11:32.922Z,20.92
2019-04-21T19:14:28.030Z,20.87
2019-04-21T19:16:59.056Z,20.83
2019-04-21T19:22:00.581Z,20.69
2019-04-21T19:24:33.550Z,20.59
2019-04-21T19:27:08.042Z,20.55
2019-04-21T19:29:31.608Z,20.51
2019-04-21T19:32:08.729Z,20.48
2019-04-21T19:34:26.783Z,20.39
2019-04-21T19:37:00.716Z,20.32
2019-04-21T19:39:43.362Z,20.27
2019-04-21T19:42:12.708Z,20.26
2019-04-21T19:44:52.062Z,20.26
2019-04-21T19:47:31.638Z,20.24
2019-04-21T19:50:01.942Z,20.14
2019-04-21T19:52:26.595Z,20.08
2019-04-21T19:54:50.404Z,20.12
2019-04-21T19:57:20.849Z,20.06
2019-04-21T19:59:55.761Z,19.98
2019-04-21T20:02:26.816Z,19.95
2019-04-21T20:05:05.062Z,19.81
2019-04-21T20:07:44.234Z,19.75
2019-04-21T20:10:27.006Z,19.70
2019-04-21T20:12:56.999Z,19.62
2019-04-21T20:15:37.406Z,19.57
2019-04-21T20:17:58.775Z,19.56
2019-04-21T20:20:17.328Z,19.52
2019-04-21T20:22:51.966Z,19.52
2019-04-21T20:25:23.713Z,19.44
2019-04-21T20:28:05.242Z,19.32
2019-04-21T20:30:45.020Z,19.32
2019-04-21T20:33:42.837Z,19.24
2019-04-21T20:35:59.008Z,19.29
2019-04-21T20:38:19.146Z,19.16
2019-04-21T20:40:50.378Z,19.11
2019-04-21T20:43:32.182Z,19.05
2019-04-21T20:46:02.415Z,18.94
2019-04-21T20:48:34.068Z,18.91
2019-04-21T20:53:42.606Z,18.73
2019-04-21T20:56:09.022Z,18.62
2019-04-21T20:58:53.744Z,18.51
2019-04-21T21:01:33.178Z,18.39
2019-04-21T21:03:51.795Z,18.41
2019-04-21T21:06:26.123Z,18.35
2019-04-21T21:09:01.553Z,18.23
2019-04-21T21:11:43.461Z,18.16
2019-04-21T21:14:07.423Z,18.12
2019-04-21T21:16:46.177Z,18.10
2019-04-21T21:21:45.599Z,17.92
2019-04-21T21:24:20.521Z,17.84
2019-04-21T21:26:53.988Z,17.78
2019-04-21T21:29:31.166Z,17.74
2019-04-21T21:32:06.647Z,17.66
2019-04-21T21:34:33.149Z,17.65
2019-04-21T21:37:16.003Z,17.61
2019-04-21T21:39:47.202Z,17.57
2019-04-21T21:42:00.938Z,17.53
2019-04-21T21:44:28.283Z,17.44
2019-04-21T21:47:12.052Z,17.37
2019-04-21T21:49:42.691Z,17.35
2019-04-21T21:52:12.779Z,17.29
2019-04-21T21:54:40.000Z,17.24
2019-04-21T21:57:12.429Z,17.24
2019-04-21T21:59:45.308Z,17.16
2019-04-21T22:02:29.329Z,17.11
2019-04-21T22:04:55.834Z,17.05
2019-04-21T22:07:28.023Z,16.99
2019-04-21T22:09:56.381Z,16.93
2019-04-21T22:12:35.001Z,16.83
2019-04-21T22:15:08.951Z,16.87
2019-04-21T22:17:49.309Z,16.85
2019-04-21T22:20:28.506Z,16.75
2019-04-21T22:22:51.733Z,16.73
2019-04-21T22:25:22.594Z,16.62
2019-04-21T22:27:48.775Z,16.57
2019-04-21T22:30:29.971Z,16.53
2019-04-21T22:33:00.623Z,16.40
2019-04-21T22:35:37.869Z,16.43
2019-04-21T22:38:17.412Z,16.29
2019-04-21T22:40:51.930Z,16.18
2019-04-21T22:43:20.689Z,16.18
2019-04-21T22:45:41.126Z,16.07
2019-04-21T22:48:17.495Z,15.99
2019-04-21T22:50:46.582Z,15.94
2019-04-21T22:53:19.444Z,15.89
2019-04-21T22:55:58.664Z,15.83
2019-04-21T22:58:29.291Z,15.78
2019-04-21T23:01:01.525Z,15.72
2019-04-21T23:03:33.963Z,15.70
2019-04-21T23:06:09.748Z,15.71
2019-04-21T23:08:42.376Z,15.57
2019-04-21T23:11:13.889Z,15.54
2019-04-21T23:13:51.665Z,15.55
2019-04-21T23:16:22.804Z,15.56
2019-04-21T23:19:14.273Z,15.39
2019-04-21T23:21:44.205Z,15.39
2019-04-21T23:24:14.851Z,15.50
2019-04-21T23:26:49.310Z,15.37
2019-04-21T23:29:33.424Z,15.28
2019-04-21T23:31:55.099Z,15.30
2019-04-21T23:34:18.376Z,15.29
2019-04-21T23:36:53.051Z,15.28
2019-04-21T23:39:23.679Z,15.21
2019-04-21T23:41:53.946Z,15.18
2019-04-21T23:44:25.982Z,15.10
2019-04-21T23:47:02.818Z,15.08
2019-04-21T23:49:43.100Z,15.18
2019-04-21T23:52:08.147Z,15.06
2019-04-21T23:54:37.483Z,15.04
2019-04-21T23:57:15.080Z,14.99
2019-04-21T23:59:47.101Z,15.04
